Aérodrome :
LOGIN :

S'inscrire | Disclaimer

   EN    FR    IT 

 










Légende :    VFR   VFR Marginal   IFR   IFR Intensif   IFR Très Intensif
Visi : 
Plafond : 
>= 8 km
>= 3000ft
5 à 8 km
1000 à 3000 ft
1500m à 5 km
500 à 1000 ft
800 à 1500m
200 à 500 ft
< 800m
< 200 ft
Symboles :   Orages  Brouillard  Fortes neiges  Fortes précipitations  Vent > 20 kt
SIGMETs :   Divers  Orages  Givrage  Turbulence  Onde Orograph.  Cendres Volcan.







- Altitude de l'aérodrome : 289 ft
- Code IATA : ZAD


LDZD - Zadar

DERNIER METAR :
  • 261630Z 26005KT 240V300 CAVOK 24/10 Q1011 NOSIG

METARs EXPIRÉS :
  • 261600Z 14003KT 090V220 CAVOK 25/09 Q1011 NOSIG
  • 261530Z 17004KT 100V230 CAVOK 25/09 Q1011 NOSIG
  • 261500Z VRB04KT CAVOK 25/09 Q1012 NOSIG
  • 261430Z 23005KT 150V300 CAVOK 25/11 Q1012 NOSIG
  • 261400Z 24007KT 190V280 CAVOK 24/10 Q1012 NOSIG

TAF TAF LDZD
Valide du 26 à 12h jusqu'au 27 à 12h UTC


261125Z 2612/2712 22008KT CAVOK TX26/2612Z TN12/2704Z
BECMG 2612/2614 32006KT
BECMG 2621/2623 06010KT
BECMG 2709/2711 24010KT
Pas de NOTAMs connus pour ce terrain.



MET'MAP, la Météo Aéronautique d'un coup d'oeil ! - Copyright ORBIFLY Décembre 2007 - Disclaimer

ORBIFLY MET'MAP TEAM :

Programmation & Développement : Alexandra Zaïnal
Conception & Développement : Baudouin d'Aumeries
Co-Programmation & Développement : Marc-Olivier Méhu
Soutien technique & logistique : Manuel Goepfert

Contact : metmap@orbifly.com




SOURCES & CREDITS :

   NOAA